Hatsu Elite — VSJG7 — position and weather

sailwx.info

Track history (hours):
 
Tides and Currents Weather Stations Pressure Air Temp Water Temp Dewpoint Dewpoint Depression Visibility Wind Speed Wind Dir Waves Ship Positions

Hatsu Elite

Last reported at 2017-Nov-19 13:01 UTC. Time now 2017-Nov-24 12:47 UTC.
Position N 22°23' E 115°30'.

Type: Cargo ship. MMSI: 235554000.

Date/timePositionNaut miles runAvg speedWind from/ knotsBaromVisibWave heightAir tempDewpointWater temp
2017-Nov-19 13:01N 22°23' E 115°30'019.0
2017-Nov-19 13:00N 22°23' E 115°30'1017.5
2017-Nov-19 12:27N 22°23' E 115°19'817.7
2017-Nov-19 12:00N 22°23' E 115°11'918.1
2017-Nov-19 11:31N 22°23' E 115°01'918.1
2017-Nov-19 11:01N 22°22' E 114°52'917.2
2017-Nov-19 10:31N 22°21' E 114°42'815.7
2017-Nov-19 10:00N 22°22' E 114°34'713.7
2017-Nov-19 09:30N 22°25' E 114°28'510.3
2017-Nov-19 09:00N 22°30' E 114°25'713.9
2017-Nov-19 08:30N 22°34' E 114°19'3 2.9
2017-Nov-19 07:30N 22°34' E 114°16'0 0.0
2017-Nov-19 06:15N 22°34' E 114°16'0 0.0
2017-Nov-19 06:00N 22°34' E 114°16'0 0.0
2017-Nov-19 01:03N 22°34' E 114°16'0 0.0
2017-Nov-19 00:54N 22°34' E 114°16'0 0.0
2017-Nov-19 00:15N 22°34' E 114°16'0 0.0
2017-Nov-18 23:12N 22°34' E 114°16'0 0.0
2017-Nov-18 22:12N 22°34' E 114°16'0 0.0
2017-Nov-18 21:57N 22°34' E 114°16'0 0.0
2017-Nov-18 20:39N 22°34' E 114°16'0 0.0
2017-Nov-18 20:30N 22°34' E 114°16'0 0.0
2017-Nov-18 20:00N 22°34' E 114°16'0 0.0
2017-Nov-18 19:27N 22°34' E 114°16'0 0.0
2017-Nov-18 18:51N 22°34' E 114°16'0 0.0
2017-Nov-18 18:24N 22°34' E 114°16'0 0.0
2017-Nov-18 17:48N 22°34' E 114°16'0 0.0
2017-Nov-18 17:27N 22°34' E 114°16'0 0.0
2017-Nov-18 16:51N 22°34' E 114°16'0 0.0
2017-Nov-18 16:27N 22°34' E 114°16'0 0.0
2017-Nov-18 16:00N 22°34' E 114°16'0 0.0
2017-Nov-18 15:30N 22°34' E 114°16'0 0.0
2017-Nov-18 15:00N 22°34' E 114°16'0 0.0
2017-Nov-18 14:27N 22°34' E 114°16'0 0.0
2017-Nov-18 14:00N 22°34' E 114°16'0 0.0
2017-Nov-18 13:30N 22°34' E 114°16'0 0.0
2017-Nov-18 13:00N 22°34' E 114°16'0 0.0
2017-Nov-18 12:30N 22°34' E 114°16'0 0.0
2017-Nov-18 12:00N 22°34' E 114°16'0 0.0
2017-Nov-18 11:30N 22°34' E 114°16'0 0.0
2017-Nov-18 11:00N 22°34' E 114°16'0 0.0
2017-Nov-18 10:18N 22°34' E 114°16'0 0.0
2017-Nov-18 10:00N 22°34' E 114°16'0 0.0
2017-Nov-18 09:24N 22°34' E 114°16'0 0.0
2017-Nov-18 08:57N 22°34' E 114°16'0 0.0
2017-Nov-18 08:21N 22°34' E 114°16'0 0.0
2017-Nov-18 06:51N 22°34' E 114°16'0 0.0
2017-Nov-18 06:30N 22°34' E 114°16'1 1.3
2017-Nov-18 06:00N 22°34' E 114°16'5 9.3
2017-Nov-18 05:30N 22°33' E 114°21'713.7
2017-Nov-18 05:00N 22°29' E 114°27'5 9.5
2017-Nov-18 04:30N 22°25' E 114°29'714.7
2017-Nov-18 04:00N 22°18' E 114°31'713.9
2017-Nov-18 03:30N 22°11' E 114°27'714.3
2017-Nov-18 03:01N 22°07' E 114°22'612.4
2017-Nov-18 02:30N 22°07' E 114°15'611.6
2017-Nov-18 02:00N 22°12' E 114°11'5 9.5
2017-Nov-18 01:31N 22°15' E 114°07'713.0
2017-Nov-18 00:57N 22°22' E 114°04'612.7
2017-Nov-18 00:30N 22°21' E 113°58'510.2
2017-Nov-18 00:00N 22°24' E 113°54'3 6.6
2017-Nov-17 23:31N 22°27' E 113°53'0 0.7
2017-Nov-17 23:00N 22°27' E 113°53'0 0.0
2017-Nov-17 22:30N 22°27' E 113°53'0 0.0
2017-Nov-17 22:00N 22°27' E 113°53'0 0.0
2017-Nov-17 21:30N 22°27' E 113°53'0 0.0
2017-Nov-17 21:00N 22°27' E 113°53'0 0.0
2017-Nov-17 20:30N 22°27' E 113°53'0 0.0
2017-Nov-17 20:00N 22°27' E 113°53'0 0.0
2017-Nov-17 19:30N 22°27' E 113°53'0 0.0
2017-Nov-17 19:00N 22°27' E 113°53'0 0.0
2017-Nov-17 18:30N 22°27' E 113°53'0 0.0
2017-Nov-17 18:00N 22°27' E 113°53'0 0.0
2017-Nov-17 17:27N 22°27' E 113°53'0 0.0
2017-Nov-17 17:00N 22°27' E 113°53'0 0.1
2017-Nov-17 16:30N 22°27' E 113°53'0 0.1
2017-Nov-17 16:00N 22°27' E 113°53'0 0.0
2017-Nov-17 15:30N 22°27' E 113°53'0 0.0
2017-Nov-17 15:00N 22°27' E 113°53'0 0.0
2017-Nov-17 14:30N 22°27' E 113°53'0 0.0
2017-Nov-17 14:00N 22°27' E 113°53'0 0.1
2017-Nov-17 13:30N 22°27' E 113°53'0 0.1
2017-Nov-17 13:00N 22°27' E 113°53'0 0.0
2017-Nov-17 12:30N 22°27' E 113°53'0 0.0
2017-Nov-17 12:00N 22°27' E 113°53'0 0.1
2017-Nov-17 11:30N 22°27' E 113°53'0 0.1
2017-Nov-17 11:00N 22°27' E 113°53'0 0.0
2017-Nov-17 10:30N 22°27' E 113°53'0 0.0
2017-Nov-17 10:00N 22°27' E 113°53'0 0.0
2017-Nov-17 09:30N 22°27' E 113°53'0 0.1
2017-Nov-17 09:00N 22°27' E 113°53'0 0.0
2017-Nov-17 08:30N 22°27' E 113°53'0 0.2
2017-Nov-17 08:00N 22°27' E 113°53'2 5.0
2017-Nov-17 07:30N 22°24' E 113°53'5 9.0
2017-Nov-17 07:00N 22°21' E 113°57'611.8
2017-Nov-17 06:30N 22°21' E 114°03'510.6
2017-Nov-17 06:00N 22°17' E 114°06'8 7.8
2017-Nov-17 04:59N 22°11' E 114°12'5 8.2
2017-Nov-17 04:19N 22°08' E 114°17'3 8.8
2017-Nov-17 04:00N 22°07' E 114°20'5 9.6
2017-Nov-17 03:30N 22°08' E 114°25'5 9.9
2017-Nov-17 03:00N 22°09' E 114°30'4 8.8
2017-Nov-17 02:30N 22°09' E 114°35'1 1.1
2017-Nov-17 02:00N 22°09' E 114°35'1 1.1
2017-Nov-17 01:28N 22°10' E 114°36'1 1.2
2017-Nov-17 01:00N 22°10' E 114°36'1 1.2
2017-Nov-17 00:30N 22°10' E 114°37'1 2.7
2017-Nov-17 00:00N 22°10' E 114°39'5 9.3
2017-Nov-16 23:30N 22°11' E 114°43'5 9.3
2017-Nov-16 23:00N 22°11' E 114°48'5 9.1
2017-Nov-16 22:30N 22°12' E 114°53'5 9.5
2017-Nov-16 22:00N 22°12' E 114°58'510.3
2017-Nov-16 21:30N 22°12' E 115°04'510.7
2017-Nov-16 21:00N 22°14' E 115°10'510.4
2017-Nov-16 20:30N 22°15' E 115°15'510.5
2017-Nov-16 20:00N 22°16' E 115°21'1810.4
2017-Nov-16 18:16N 22°20' E 115°40'410.1
2017-Nov-16 17:51N 22°22' E 115°44'16511.6
2017-Nov-16 03:37N 23°59' E 118°08'214.8
2017-Nov-16 03:29N 24°01' E 118°09'714.0
2017-Nov-16 03:00N 24°07' E 118°12'712.7
2017-Nov-16 02:29N 24°12' E 118°17'612.9
2017-Nov-16 02:00N 24°17' E 118°13'611.7
2017-Nov-16 01:30N 24°21' E 118°09'611.3
2017-Nov-16 01:01N 24°25' E 118°05'5 9.2
2017-Nov-16 00:30N 24°30' E 118°04'1 2.3
2017-Nov-15 23:56N 24°31' E 118°05'0 0.0
2017-Nov-15 23:29N 24°31' E 118°05'0 0.0
2017-Nov-15 22:53N 24°31' E 118°05'0 0.0
2017-Nov-15 22:29N 24°31' E 118°05'0 0.0
2017-Nov-15 21:59N 24°31' E 118°05'0 0.0
2017-Nov-15 21:29N 24°31' E 118°05'0 0.0
2017-Nov-15 20:59N 24°31' E 118°05'0 0.0
2017-Nov-15 20:23N 24°31' E 118°05'0 0.0
2017-Nov-15 19:59N 24°31' E 118°05'0 0.0
2017-Nov-15 19:26N 24°31' E 118°05'0 0.0
2017-Nov-15 18:59N 24°31' E 118°05'0 0.0
2017-Nov-15 18:29N 24°31' E 118°05'0 0.0
2017-Nov-15 17:59N 24°31' E 118°05'0 0.0
2017-Nov-15 17:29N 24°31' E 118°05'0 0.0
2017-Nov-15 16:59N 24°31' E 118°05'0 0.0
2017-Nov-15 16:26N 24°31' E 118°05'0 0.0
2017-Nov-15 15:59N 24°31' E 118°05'0 0.0
2017-Nov-15 15:29N 24°31' E 118°05'0 0.0
2017-Nov-15 14:59N 24°31' E 118°05'0 0.0
2017-Nov-15 14:26N 24°31' E 118°05'0 0.0
2017-Nov-15 13:59N 24°31' E 118°05'0 0.0
2017-Nov-15 13:29N 24°31' E 118°05'0 0.0
2017-Nov-15 12:50N 24°31' E 118°05'0 0.0
2017-Nov-15 12:29N 24°31' E 118°05'0 0.0
2017-Nov-15 12:00N 24°31' E 118°05'0 0.0
2017-Nov-15 11:30N 24°31' E 118°05'0 0.0
2017-Nov-15 11:00N 24°31' E 118°05'0 0.0
2017-Nov-15 10:30N 24°31' E 118°05'0 0.0
2017-Nov-15 10:00N 24°31' E 118°05'0 0.0
2017-Nov-15 09:30N 24°31' E 118°05'0 0.0
2017-Nov-15 09:00N 24°31' E 118°05'1 1.1
2017-Nov-15 08:30N 24°30' E 118°04'5 9.4
2017-Nov-15 08:00N 24°26' E 118°03'611.4
2017-Nov-15 07:30N 24°22' E 118°08'4 7.4
2017-Nov-15 07:00N 24°20' E 118°11'3 6.6
2017-Nov-15 06:30N 24°18' E 118°14'4 7.6
2017-Nov-15 06:00N 24°17' E 118°18'4 7.0
2017-Nov-15 05:29N 24°16' E 118°22'0 0.2
2017-Nov-15 04:59N 24°16' E 118°22'0 0.1
2017-Nov-15 04:26N 24°16' E 118°22'0 0.0
2017-Nov-15 03:59N 24°16' E 118°22'0 0.1
2017-Nov-15 03:29N 24°16' E 118°22'0 0.1
2017-Nov-15 02:59N 24°16' E 118°22'0 0.1
2017-Nov-15 02:29N 24°16' E 118°22'0 0.0
2017-Nov-15 01:59N 24°16' E 118°22'0 0.0
2017-Nov-15 01:29N 24°16' E 118°22'0 0.0
2017-Nov-15 00:59N 24°16' E 118°22'0 0.1
2017-Nov-15 00:29N 24°16' E 118°22'0 0.0
2017-Nov-14 23:59N 24°16' E 118°22'0 0.0
2017-Nov-14 23:29N 24°16' E 118°22'0 0.0
2017-Nov-14 22:59N 24°16' E 118°22'0 0.0
2017-Nov-14 22:29N 24°16' E 118°22'0 0.0
2017-Nov-14 21:59N 24°16' E 118°22'0 0.0
2017-Nov-14 21:29N 24°16' E 118°22'0 0.0
2017-Nov-14 20:59N 24°16' E 118°22'0 0.1
2017-Nov-14 20:29N 24°16' E 118°22'0 0.1
2017-Nov-14 19:59N 24°16' E 118°22'0 0.1
2017-Nov-14 19:29N 24°16' E 118°22'0 0.1
2017-Nov-14 18:59N 24°16' E 118°22'0 0.0
2017-Nov-14 18:29N 24°16' E 118°22'0 0.0
2017-Nov-14 17:59N 24°16' E 118°22'0 0.0
2017-Nov-14 17:29N 24°16' E 118°22'0 0.0
2017-Nov-14 16:59N 24°16' E 118°22'0 0.0
2017-Nov-14 16:29N 24°16' E 118°22'0 0.0
2017-Nov-14 15:59N 24°16' E 118°22'0 0.1
2017-Nov-14 15:29N 24°16' E 118°22'0 0.1
2017-Nov-14 14:56N 24°16' E 118°22'0 0.1
2017-Nov-14 14:29N 24°16' E 118°22'0 0.1
2017-Nov-14 14:00N 24°16' E 118°22'0 0.8
2017-Nov-14 13:30N 24°17' E 118°22'510.6
2017-Nov-14 13:00N 24°18' E 118°28'714.0
2017-Nov-14 12:30N 24°18' E 118°36'714.2
2017-Nov-14 12:00N 24°21' E 118°43'378 9.0
2017-Nov-12 18:00N 26°54' E 125°06'17014.2 050 / 121018.010.8 23.019.924.0
2017-Nov-12 06:00N 28°06' E 128°00'34614.4 010 / 171017.010.8 22.017.224.0
2017-Nov-11 06:00N 30°42' E 133°54'8514.2 320 / 221012.010.8 24.019.426.0
2017-Nov-11 00:00N 31°18' E 135°24'7612.6 240 / 231013.010.8 24.017.6
2017-Nov-10 18:00N 31°54' E 136°42'33313.9 230 / 211014.010.8 22.018.923.0
2017-Nov-09 18:00N 34°54' E 142°18'   310 / 201021.0 16.010.3
Track history (hours):
 
Tides and Currents Weather Stations Pressure Air Temp Water Temp Dewpoint Dewpoint Depression Visibility Wind Speed Wind Dir Waves Ship Positions

Hatsu Elite

Last reported at 2017-Nov-19 13:01 UTC. Time now 2017-Nov-24 12:47 UTC.
Position N 22°23' E 115°30'.

Type: Cargo ship. MMSI: 235554000.

Date/timePositionNaut miles runAvg speedWind from/ knotsBaromVisibWave heightAir tempDewpointWater temp
2017-Nov-19 13:01N 22°23' E 115°30'019.0
2017-Nov-19 13:00N 22°23' E 115°30'1017.5
2017-Nov-19 12:27N 22°23' E 115°19'817.7
2017-Nov-19 12:00N 22°23' E 115°11'918.1
2017-Nov-19 11:31N 22°23' E 115°01'918.1
2017-Nov-19 11:01N 22°22' E 114°52'917.2
2017-Nov-19 10:31N 22°21' E 114°42'815.7
2017-Nov-19 10:00N 22°22' E 114°34'713.7
2017-Nov-19 09:30N 22°25' E 114°28'510.3
2017-Nov-19 09:00N 22°30' E 114°25'713.9
2017-Nov-19 08:30N 22°34' E 114°19'3 2.9
2017-Nov-19 07:30N 22°34' E 114°16'0 0.0
2017-Nov-19 06:15N 22°34' E 114°16'0 0.0
2017-Nov-19 06:00N 22°34' E 114°16'0 0.0
2017-Nov-19 01:03N 22°34' E 114°16'0 0.0
2017-Nov-19 00:54N 22°34' E 114°16'0 0.0
2017-Nov-19 00:15N 22°34' E 114°16'0 0.0
2017-Nov-18 23:12N 22°34' E 114°16'0 0.0
2017-Nov-18 22:12N 22°34' E 114°16'0 0.0
2017-Nov-18 21:57N 22°34' E 114°16'0 0.0
2017-Nov-18 20:39N 22°34' E 114°16'0 0.0
2017-Nov-18 20:30N 22°34' E 114°16'0 0.0
2017-Nov-18 20:00N 22°34' E 114°16'0 0.0
2017-Nov-18 19:27N 22°34' E 114°16'0 0.0
2017-Nov-18 18:51N 22°34' E 114°16'0 0.0
2017-Nov-18 18:24N 22°34' E 114°16'0 0.0
2017-Nov-18 17:48N 22°34' E 114°16'0 0.0
2017-Nov-18 17:27N 22°34' E 114°16'0 0.0
2017-Nov-18 16:51N 22°34' E 114°16'0 0.0
2017-Nov-18 16:27N 22°34' E 114°16'0 0.0
2017-Nov-18 16:00N 22°34' E 114°16'0 0.0
2017-Nov-18 15:30N 22°34' E 114°16'0 0.0
2017-Nov-18 15:00N 22°34' E 114°16'0 0.0
2017-Nov-18 14:27N 22°34' E 114°16'0 0.0
2017-Nov-18 14:00N 22°34' E 114°16'0 0.0
2017-Nov-18 13:30N 22°34' E 114°16'0 0.0
2017-Nov-18 13:00N 22°34' E 114°16'0 0.0
2017-Nov-18 12:30N 22°34' E 114°16'0 0.0
2017-Nov-18 12:00N 22°34' E 114°16'0 0.0
2017-Nov-18 11:30N 22°34' E 114°16'0 0.0
2017-Nov-18 11:00N 22°34' E 114°16'0 0.0
2017-Nov-18 10:18N 22°34' E 114°16'0 0.0
2017-Nov-18 10:00N 22°34' E 114°16'0 0.0
2017-Nov-18 09:24N 22°34' E 114°16'0 0.0
2017-Nov-18 08:57N 22°34' E 114°16'0 0.0
2017-Nov-18 08:21N 22°34' E 114°16'0 0.0
2017-Nov-18 06:51N 22°34' E 114°16'0 0.0
2017-Nov-18 06:30N 22°34' E 114°16'1 1.3
2017-Nov-18 06:00N 22°34' E 114°16'5 9.3
2017-Nov-18 05:30N 22°33' E 114°21'713.7
2017-Nov-18 05:00N 22°29' E 114°27'5 9.5
2017-Nov-18 04:30N 22°25' E 114°29'714.7
2017-Nov-18 04:00N 22°18' E 114°31'713.9
2017-Nov-18 03:30N 22°11' E 114°27'714.3
2017-Nov-18 03:01N 22°07' E 114°22'612.4
2017-Nov-18 02:30N 22°07' E 114°15'611.6
2017-Nov-18 02:00N 22°12' E 114°11'5 9.5
2017-Nov-18 01:31N 22°15' E 114°07'713.0
2017-Nov-18 00:57N 22°22' E 114°04'612.7
2017-Nov-18 00:30N 22°21' E 113°58'510.2
2017-Nov-18 00:00N 22°24' E 113°54'3 6.6
2017-Nov-17 23:31N 22°27' E 113°53'0 0.7
2017-Nov-17 23:00N 22°27' E 113°53'0 0.0
2017-Nov-17 22:30N 22°27' E 113°53'0 0.0
2017-Nov-17 22:00N 22°27' E 113°53'0 0.0
2017-Nov-17 21:30N 22°27' E 113°53'0 0.0
2017-Nov-17 21:00N 22°27' E 113°53'0 0.0
2017-Nov-17 20:30N 22°27' E 113°53'0 0.0
2017-Nov-17 20:00N 22°27' E 113°53'0 0.0
2017-Nov-17 19:30N 22°27' E 113°53'0 0.0
2017-Nov-17 19:00N 22°27' E 113°53'0 0.0
2017-Nov-17 18:30N 22°27' E 113°53'0 0.0
2017-Nov-17 18:00N 22°27' E 113°53'0 0.0
2017-Nov-17 17:27N 22°27' E 113°53'0 0.0
2017-Nov-17 17:00N 22°27' E 113°53'0 0.1
2017-Nov-17 16:30N 22°27' E 113°53'0 0.1
2017-Nov-17 16:00N 22°27' E 113°53'0 0.0
2017-Nov-17 15:30N 22°27' E 113°53'0 0.0
2017-Nov-17 15:00N 22°27' E 113°53'0 0.0
2017-Nov-17 14:30N 22°27' E 113°53'0 0.0
2017-Nov-17 14:00N 22°27' E 113°53'0 0.1
2017-Nov-17 13:30N 22°27' E 113°53'0 0.1
2017-Nov-17 13:00N 22°27' E 113°53'0 0.0
2017-Nov-17 12:30N 22°27' E 113°53'0 0.0
2017-Nov-17 12:00N 22°27' E 113°53'0 0.1
2017-Nov-17 11:30N 22°27' E 113°53'0 0.1
2017-Nov-17 11:00N 22°27' E 113°53'0 0.0
2017-Nov-17 10:30N 22°27' E 113°53'0 0.0
2017-Nov-17 10:00N 22°27' E 113°53'0 0.0
2017-Nov-17 09:30N 22°27' E 113°53'0 0.1
2017-Nov-17 09:00N 22°27' E 113°53'0 0.0
2017-Nov-17 08:30N 22°27' E 113°53'0 0.2
2017-Nov-17 08:00N 22°27' E 113°53'2 5.0
2017-Nov-17 07:30N 22°24' E 113°53'5 9.0
2017-Nov-17 07:00N 22°21' E 113°57'611.8
2017-Nov-17 06:30N 22°21' E 114°03'510.6
2017-Nov-17 06:00N 22°17' E 114°06'8 7.8
2017-Nov-17 04:59N 22°11' E 114°12'5 8.2
2017-Nov-17 04:19N 22°08' E 114°17'3 8.8
2017-Nov-17 04:00N 22°07' E 114°20'5 9.6
2017-Nov-17 03:30N 22°08' E 114°25'5 9.9
2017-Nov-17 03:00N 22°09' E 114°30'4 8.8
2017-Nov-17 02:30N 22°09' E 114°35'1 1.1
2017-Nov-17 02:00N 22°09' E 114°35'1 1.1
2017-Nov-17 01:28N 22°10' E 114°36'1 1.2
2017-Nov-17 01:00N 22°10' E 114°36'1 1.2
2017-Nov-17 00:30N 22°10' E 114°37'1 2.7
2017-Nov-17 00:00N 22°10' E 114°39'5 9.3
2017-Nov-16 23:30N 22°11' E 114°43'5 9.3
2017-Nov-16 23:00N 22°11' E 114°48'5 9.1
2017-Nov-16 22:30N 22°12' E 114°53'5 9.5
2017-Nov-16 22:00N 22°12' E 114°58'510.3
2017-Nov-16 21:30N 22°12' E 115°04'510.7
2017-Nov-16 21:00N 22°14' E 115°10'510.4
2017-Nov-16 20:30N 22°15' E 115°15'510.5
2017-Nov-16 20:00N 22°16' E 115°21'1810.4
2017-Nov-16 18:16N 22°20' E 115°40'410.1
2017-Nov-16 17:51N 22°22' E 115°44'16511.6
2017-Nov-16 03:37N 23°59' E 118°08'214.8
2017-Nov-16 03:29N 24°01' E 118°09'714.0
2017-Nov-16 03:00N 24°07' E 118°12'712.7
2017-Nov-16 02:29N 24°12' E 118°17'612.9
2017-Nov-16 02:00N 24°17' E 118°13'611.7
2017-Nov-16 01:30N 24°21' E 118°09'611.3
2017-Nov-16 01:01N 24°25' E 118°05'5 9.2
2017-Nov-16 00:30N 24°30' E 118°04'1 2.3
2017-Nov-15 23:56N 24°31' E 118°05'0 0.0
2017-Nov-15 23:29N 24°31' E 118°05'0 0.0
2017-Nov-15 22:53N 24°31' E 118°05'0 0.0
2017-Nov-15 22:29N 24°31' E 118°05'0 0.0
2017-Nov-15 21:59N 24°31' E 118°05'0 0.0
2017-Nov-15 21:29N 24°31' E 118°05'0 0.0
2017-Nov-15 20:59N 24°31' E 118°05'0 0.0
2017-Nov-15 20:23N 24°31' E 118°05'0 0.0
2017-Nov-15 19:59N 24°31' E 118°05'0 0.0
2017-Nov-15 19:26N 24°31' E 118°05'0 0.0
2017-Nov-15 18:59N 24°31' E 118°05'0 0.0
2017-Nov-15 18:29N 24°31' E 118°05'0 0.0
2017-Nov-15 17:59N 24°31' E 118°05'0 0.0
2017-Nov-15 17:29N 24°31' E 118°05'0 0.0
2017-Nov-15 16:59N 24°31' E 118°05'0 0.0
2017-Nov-15 16:26N 24°31' E 118°05'0 0.0
2017-Nov-15 15:59N 24°31' E 118°05'0 0.0
2017-Nov-15 15:29N 24°31' E 118°05'0 0.0
2017-Nov-15 14:59N 24°31' E 118°05'0 0.0
2017-Nov-15 14:26N 24°31' E 118°05'0 0.0
2017-Nov-15 13:59N 24°31' E 118°05'0 0.0
2017-Nov-15 13:29N 24°31' E 118°05'0 0.0
2017-Nov-15 12:50N 24°31' E 118°05'0 0.0
2017-Nov-15 12:29N 24°31' E 118°05'0 0.0
2017-Nov-15 12:00N 24°31' E 118°05'0 0.0
2017-Nov-15 11:30N 24°31' E 118°05'0 0.0
2017-Nov-15 11:00N 24°31' E 118°05'0 0.0
2017-Nov-15 10:30N 24°31' E 118°05'0 0.0
2017-Nov-15 10:00N 24°31' E 118°05'0 0.0
2017-Nov-15 09:30N 24°31' E 118°05'0 0.0
2017-Nov-15 09:00N 24°31' E 118°05'1 1.1
2017-Nov-15 08:30N 24°30' E 118°04'5 9.4
2017-Nov-15 08:00N 24°26' E 118°03'611.4
2017-Nov-15 07:30N 24°22' E 118°08'4 7.4
2017-Nov-15 07:00N 24°20' E 118°11'3 6.6
2017-Nov-15 06:30N 24°18' E 118°14'4 7.6
2017-Nov-15 06:00N 24°17' E 118°18'4 7.0
2017-Nov-15 05:29N 24°16' E 118°22'0 0.2
2017-Nov-15 04:59N 24°16' E 118°22'0 0.1
2017-Nov-15 04:26N 24°16' E 118°22'0 0.0
2017-Nov-15 03:59N 24°16' E 118°22'0 0.1
2017-Nov-15 03:29N 24°16' E 118°22'0 0.1
2017-Nov-15 02:59N 24°16' E 118°22'0 0.1
2017-Nov-15 02:29N 24°16' E 118°22'0 0.0
2017-Nov-15 01:59N 24°16' E 118°22'0 0.0
2017-Nov-15 01:29N 24°16' E 118°22'0 0.0
2017-Nov-15 00:59N 24°16' E 118°22'0 0.1
2017-Nov-15 00:29N 24°16' E 118°22'0 0.0
2017-Nov-14 23:59N 24°16' E 118°22'0 0.0
2017-Nov-14 23:29N 24°16' E 118°22'0 0.0
2017-Nov-14 22:59N 24°16' E 118°22'0 0.0
2017-Nov-14 22:29N 24°16' E 118°22'0 0.0
2017-Nov-14 21:59N 24°16' E 118°22'0 0.0
2017-Nov-14 21:29N 24°16' E 118°22'0 0.0
2017-Nov-14 20:59N 24°16' E 118°22'0 0.1
2017-Nov-14 20:29N 24°16' E 118°22'0 0.1
2017-Nov-14 19:59N 24°16' E 118°22'0 0.1
2017-Nov-14 19:29N 24°16' E 118°22'0 0.1
2017-Nov-14 18:59N 24°16' E 118°22'0 0.0
2017-Nov-14 18:29N 24°16' E 118°22'0 0.0
2017-Nov-14 17:59N 24°16' E 118°22'0 0.0
2017-Nov-14 17:29N 24°16' E 118°22'0 0.0
2017-Nov-14 16:59N 24°16' E 118°22'0 0.0
2017-Nov-14 16:29N 24°16' E 118°22'0 0.0
2017-Nov-14 15:59N 24°16' E 118°22'0 0.1
2017-Nov-14 15:29N 24°16' E 118°22'0 0.1
2017-Nov-14 14:56N 24°16' E 118°22'0 0.1
2017-Nov-14 14:29N 24°16' E 118°22'0 0.1
2017-Nov-14 14:00N 24°16' E 118°22'0 0.8
2017-Nov-14 13:30N 24°17' E 118°22'510.6
2017-Nov-14 13:00N 24°18' E 118°28'714.0
2017-Nov-14 12:30N 24°18' E 118°36'714.2
2017-Nov-14 12:00N 24°21' E 118°43'378 9.0
2017-Nov-12 18:00N 26°54' E 125°06'17014.2 050 / 121018.010.8 23.019.924.0
2017-Nov-12 06:00N 28°06' E 128°00'34614.4 010 / 171017.010.8 22.017.224.0
2017-Nov-11 06:00N 30°42' E 133°54'8514.2 320 / 221012.010.8 24.019.426.0
2017-Nov-11 00:00N 31°18' E 135°24'7612.6 240 / 231013.010.8 24.017.6
2017-Nov-10 18:00N 31°54' E 136°42'33313.9 230 / 211014.010.8 22.018.923.0
2017-Nov-09 18:00N 34°54' E 142°18'   310 / 201021.0 16.010.3

Dump ship's entire track history